• Join FlightAware (Why Join?)
  • Login
  • US Flag 
06:49PM EDT


 

Airport Tracker/Info


-or-


 

Live Flight TrackerFlight Track Log ✈ XOJ549 ✈ 26-Jun-2013 ✈ KFOK - KHOU

Flight Track Log - Related Links

Times and Time Zones

All times are in EDT time to prevent confusion due to time zone crossing. See the XOJ549 flight status page for this flight to view local times or setup timezone preferences in your user account.

Time Position Orientation Groundspeed Altitude Reporting Facility
EDT Latitude Longitude Course Direction KTS MPH feet Rate Location/Type
12:23PM 40.8000 -72.6667 237° Southwest 204 235 3,500  Level New York TRACON
12:24PM 40.7500 -72.6000 135° Southeast 285 328 7,100 3,000 Climbing New York TRACON
12:26PM 40.6831 -72.5906 174° South 237 273 10,000 1,620 Climbing Boston Center
12:27PM 40.6475 -72.6644 238° Southwest 174 200 10,700 1,680 Climbing Boston Center
12:28PM 40.6494 -72.7575 272° West 200 230 13,400 2,820 Climbing Boston Center
12:29PM 40.4535 -73.1096 237° Southwest  Level FlightAware Approximate
12:29PM 40.6469 -72.8558 268° West 224 258 16,400  Level Boston Center
12:30PM 40.6194 -72.9622 251° West 276 318 18,900 1,260 Climbing Boston Center
12:31PM 40.5897 -73.0797 252° West 314 361 19,000 60 Climbing Boston Center
12:32PM 40.5461 -73.2483 251° West 348 400 19,200 840 Climbing New York Center
12:33PM 40.5144 -73.3672 251° West 348 400 21,200 2,100 Climbing New York Center
12:34PM 40.5175 -73.5039 272° West 353 406 23,400 2,160 Climbing New York Center
12:35PM 40.5225 -73.6433 273° West 371 427 25,500 1,920 Climbing New York Center
12:36PM 40.5272 -73.7881 273° West 384 442 27,400 1,920 Climbing New York Center
12:37PM 40.5314 -73.9494 272° West 403 464 29,400 1,680 Climbing New York Center
12:38PM 40.5378 -74.0972 273° West 412 474 30,800 1,380 Climbing New York Center
12:39PM 40.5461 -74.2369 275° West 426 490 32,200 1,380 Climbing New York Center
12:40PM 40.5347 -74.4111 265° West 426 490 33,600 1,500 Climbing New York Center
12:41PM 40.5089 -74.5681 258° West 432 497 35,200 1,560 Climbing New York Center
12:42PM 40.4694 -74.6939 248° West 426 490 36,900 1,560 Climbing New York Center
12:43PM 40.4025 -74.8211 235° Southwest 426 490 38,400 1,260 Climbing New York Center
12:44PM 40.3225 -74.9661 234° Southwest 439 505 39,400 900 Climbing New York Center
12:45PM 40.2511 -75.0950 234° Southwest 439 505 40,300 900 Climbing New York Center
12:46PM 40.1903 -75.2161 237° Southwest 444 511 41,200 840 Climbing New York Center
12:47PM 40.1350 -75.3567 243° Southwest 438 504 42,000 780 Climbing New York Center
12:48PM 40.0747 -75.5072 242° Southwest 438 504 42,800 720 Climbing New York Center
12:49PM 40.0239 -75.6311 242° Southwest 438 504 43,500 540 Climbing New York Center
12:50PM 39.9656 -75.7789 243° Southwest 431 496 43,900 360 Climbing New York Center
12:52PM 39.8775 -75.9997 243° Southwest 425 489 44,500 360 Climbing Washington Center
12:53PM 39.8228 -76.1344 242° Southwest 420 483 45,000 240 Climbing Washington Center
12:54PM 39.7658 -76.2664 241° Southwest 425 489 45,000  Level Washington Center
12:55PM 39.7089 -76.4008 241° Southwest 425 489 45,000  Level Washington Center
12:56PM 39.6536 -76.5347 242° Southwest 425 489 45,000  Level Washington Center
12:57PM 39.5983 -76.6714 242° Southwest 430 495 45,000  Level Washington Center
12:58PM 39.5428 -76.8078 242° Southwest 430 495 45,000  Level Washington Center
12:59PM 39.5039 -76.9497 250° West 430 495 45,000  Level Washington Center
01:00PM 39.4731 -77.0969 255° West 430 495 45,000  Level Washington Center
01:01PM 39.4419 -77.2469 255° West 430 495 45,000  Level Washington Center
01:02PM 39.4153 -77.3619 253° West 425 489 45,000  Level Washington Center
01:03PM 39.3769 -77.5408 255° West 425 489 45,000  Level Washington Center
01:04PM 39.3453 -77.6928 255° West 435 501 45,000  Level Washington Center
01:05PM 39.3114 -77.8422 254° West 435 501 45,000  Level Washington Center
01:06PM 39.2861 -77.9619 255° West 435 501 45,000  Level Washington Center
01:07PM 39.2450 -78.1431 254° West 435 501 45,000  Level Washington Center
01:08PM 39.2103 -78.2917 253° West 435 501 45,000  Level Washington Center
01:09PM 39.1572 -78.4317 244° Southwest 435 501 45,000  Level Washington Center
01:10PM 39.0956 -78.5658 239° Southwest 435 501 45,000  Level Washington Center
01:11PM 39.0358 -78.6994 240° Southwest 435 501 45,000  Level Washington Center
01:12PM 38.9739 -78.8331 239° Southwest 435 501 45,000  Level Washington Center
01:13PM 38.9139 -78.9667 240° Southwest 435 501 45,000  Level Washington Center
01:14PM 38.8519 -79.0997 239° Southwest 440 506 45,000  Level Washington Center
01:15PM 38.7894 -79.2353 239° Southwest 440 506 45,000  Level Washington Center
01:16PM 38.7289 -79.3733 241° Southwest 440 506 45,000  Level Washington Center
01:17PM 38.6642 -79.5083 238° Southwest 440 506 45,000  Level Washington Center
01:18PM 38.6011 -79.6456 240° Southwest 440 506 45,000  Level Washington Center
01:19PM 38.5428 -79.7672 239° Southwest 445 512 45,000  Level Washington Center
01:20PM 38.4817 -79.9017 240° Southwest 445 512 45,000  Level Washington Center
01:21PM 38.4161 -80.0383 239° Southwest 445 512 45,000  Level Washington Center
01:22PM 38.3439 -80.1875 238° Southwest 450 518 45,000  Level Washington Center
01:23PM 38.2803 -80.3214 239° Southwest 450 518 45,000  Level Washington Center
01:24PM 38.2144 -80.4544 238° Southwest 450 518 45,000  Level Washington Center
01:26PM 38.0811 -80.7203 238° Southwest 449 517 45,000  Level Indianapolis Center
01:27PM 38.0175 -80.8542 239° Southwest 445 512 45,000  Level Indianapolis Center
01:28PM 37.9503 -80.9889 238° Southwest 449 517 45,000  Level Indianapolis Center
01:29PM 37.8836 -81.1242 238° Southwest 450 518 45,000  Level Indianapolis Center
01:30PM 37.8092 -81.2764 238° Southwest 451 519 45,000  Level Indianapolis Center
01:31PM 37.7458 -81.4067 238° Southwest 449 517 45,000  Level Indianapolis Center
01:32PM 37.6764 -81.5442 237° Southwest 450 518 45,000  Level Indianapolis Center
01:33PM 37.6108 -81.6761 238° Southwest 444 511 45,000  Level Indianapolis Center
01:34PM 37.5439 -81.8106 238° Southwest 451 519 45,000  Level Indianapolis Center
01:35PM 37.4750 -81.9439 237° Southwest 454 522 45,000  Level Indianapolis Center
01:36PM 37.3956 -82.1014 238° Southwest 456 525 45,000  Level Indianapolis Center
01:37PM 37.3281 -82.2358 238° Southwest 455 524 45,000  Level Indianapolis Center
01:38PM 37.2589 -82.3714 237° Southwest 462 532 45,000  Level Indianapolis Center
01:39PM 37.1908 -82.5058 238° Southwest 460 529 45,000  Level Indianapolis Center
01:40PM 37.1214 -82.6408 237° Southwest 460 529 45,000  Level Indianapolis Center
01:41PM 37.0519 -82.7758 237° Southwest 461 531 45,000  Level Indianapolis Center
01:42PM 36.9731 -82.9206 236° Southwest 467 537 45,000  Level Indianapolis Center
01:43PM 36.9019 -83.0639 238° Southwest 466 536 45,000  Level Indianapolis Center
01:44PM 36.8319 -83.1983 237° Southwest 464 534 45,000  Level Indianapolis Center
01:46PM 36.7619 -83.3322 237° Southwest 459 528 45,000  Level Indianapolis Center
01:47PM 36.6664 -83.5106 236° Southwest 463 533 45,000 -180 Level Indianapolis Center
01:48PM 36.5953 -83.6456 237° Southwest 467 537 44,700 -420 Descending Indianapolis Center
01:49PM 36.5222 -83.7783 236° Southwest 468 539 44,200 -660 Descending Indianapolis Center
01:50PM 36.4492 -83.9189 237° Southwest 467 537 43,400 -600 Descending Indianapolis Center
01:51PM 36.3803 -84.0581 238° Southwest 473 544 43,000 -240 Descending Indianapolis Center
01:52PM 36.3286 -84.2058 247° West 467 537 43,000  Level Indianapolis Center
01:53PM 36.2758 -84.3542 246° West 470 541 43,000  Level Indianapolis Center
01:54PM 36.2231 -84.5011 246° West 469 540 43,000  Level Indianapolis Center
01:55PM 36.1592 -84.6783 246° West 471 542 43,000  Level Indianapolis Center
01:56PM 36.0961 -84.8192 241° Southwest 472 543 43,000  Level Indianapolis Center
01:58PM 35.9569 -85.0900 238° Southwest 492 566 43,000  Level Memphis Center
01:59PM 35.8792 -85.2206 234° Southwest 492 566 43,000  Level Memphis Center
02:00PM 35.8011 -85.3558 235° Southwest 492 566 43,000  Level Memphis Center
02:02PM 35.6133 -85.6814 235° Southwest 476 548 43,000  Level Atlanta Center
02:03PM 35.5344 -85.8125 234° Southwest 476 548 43,000  Level Atlanta Center
02:04PM 35.4594 -85.9433 235° Southwest 476 548 43,000  Level Atlanta Center
02:05PM 35.3822 -86.0717 234° Southwest 476 548 43,000  Level Atlanta Center
02:06PM 35.3050 -86.2019 234° Southwest 476 548 43,000  Level Atlanta Center
02:07PM 35.2294 -86.3322 235° Southwest 470 541 43,000  Level Atlanta Center
02:09PM 35.0992 -86.5525 234° Southwest 453 521 43,000  Level Memphis Center
02:10PM 35.0278 -86.6750 235° Southwest 445 512 43,000  Level Memphis Center
02:11PM 34.9522 -86.8025 234° Southwest 456 525 43,000  Level Memphis Center
02:12PM 34.8703 -86.9350 233° Southwest 483 556 43,000  Level Memphis Center
02:13PM 34.7886 -87.0775 235° Southwest 483 556 43,000  Level Memphis Center
02:14PM 34.7106 -87.2017 233° Southwest 470 541 43,000  Level Memphis Center
02:15PM 34.6342 -87.3231 233° Southwest 470 541 43,000  Level Memphis Center
02:16PM 34.5700 -87.4314 234° Southwest 462 532 43,000  Level Memphis Center
02:17PM 34.4894 -87.5575 232° Southwest 461 531 43,000  Level Memphis Center
02:18PM 34.4150 -87.6833 234° Southwest 466 536 43,000  Level Memphis Center
02:19PM 34.3383 -87.8067 233° Southwest 466 536 43,000  Level Memphis Center
02:20PM 34.2556 -87.9397 233° Southwest 466 536 43,000  Level Memphis Center
02:21PM 34.1764 -88.0650 233° Southwest 466 536 43,000  Level Memphis Center
02:22PM 34.1014 -88.1875 234° Southwest 466 536 43,000  Level Memphis Center
02:23PM 34.0222 -88.3197 234° Southwest 478 550 43,000  Level Memphis Center
02:24PM 33.9469 -88.4417 233° Southwest 473 544 43,000  Level Memphis Center
02:25PM 33.8717 -88.5608 233° Southwest 468 539 43,000  Level Memphis Center
02:26PM 33.7961 -88.6825 233° Southwest 468 539 43,000  Level Memphis Center
02:27PM 33.7183 -88.8014 232° Southwest 468 539 43,000  Level Memphis Center
02:28PM 33.6467 -88.9225 235° Southwest 463 533 43,000  Level Memphis Center
02:29PM 33.5708 -89.0433 233° Southwest 463 533 43,000  Level Memphis Center
02:30PM 33.4928 -89.1617 232° Southwest 463 533 43,000  Level Memphis Center
02:31PM 33.4167 -89.2797 232° Southwest 463 533 43,000  Level Memphis Center
02:32PM 33.3547 -89.3747 232° Southwest 463 533 43,000  Level Memphis Center
02:33PM 33.2619 -89.5200 233° Southwest 463 533 43,000  Level Memphis Center
02:34PM 33.1833 -89.6400 232° Southwest 463 533 43,000  Level Memphis Center
02:35PM 33.1108 -89.7594 234° Southwest 463 533 43,000  Level Memphis Center
02:36PM 33.0467 -89.8592 233° Southwest 469 540 43,000  Level Memphis Center
02:37PM 32.9553 -89.9958 231° Southwest 475 547 43,000  Level Memphis Center
02:38PM 32.8742 -90.1172 232° Southwest 480 552 43,000  Level Memphis Center
02:39PM 32.7950 -90.2336 231° Southwest 469 540 43,000  Level Memphis Center
02:40PM 32.7158 -90.3525 232° Southwest 469 540 43,000  Level Memphis Center
02:41PM 32.6364 -90.4733 232° Southwest 469 540 43,000  Level Memphis Center
02:42PM 32.5569 -90.5914 231° Southwest 469 540 43,000  Level Memphis Center
02:43PM 32.4772 -90.7119 232° Southwest 469 540 43,000  Level Memphis Center
02:44PM 32.3872 -90.8444 231° Southwest 469 540 43,000  Level Memphis Center
02:45PM 32.3539 -90.8969 233° Southwest 463 533 43,000  Level Houston Center
02:46PM 32.2750 -91.0167 232° Southwest 464 534 43,000  Level Houston Center
02:47PM 32.1956 -91.1333 231° Southwest 459 528 43,000  Level Houston Center
02:48PM 32.1006 -91.2747 232° Southwest 460 529 43,000  Level Houston Center
02:49PM 32.0206 -91.3911 231° Southwest 457 526 43,000  Level Houston Center
02:50PM 31.9453 -91.5122 234° Southwest 459 528 43,000  Level Houston Center
02:51PM 31.8853 -91.6467 242° Southwest 463 533 43,000  Level Houston Center
02:52PM 31.8233 -91.7786 241° Southwest 461 531 43,000  Level Houston Center
02:53PM 31.7619 -91.9100 241° Southwest 461 531 43,000  Level Houston Center
02:54PM 31.6847 -92.0703 241° Southwest 466 536 43,000  Level Houston Center
02:55PM 31.6225 -92.2017 241° Southwest 461 531 43,000  Level Houston Center
02:56PM 31.5608 -92.3322 241° Southwest 458 527 43,000  Level Houston Center
02:57PM 31.5003 -92.4631 242° Southwest 457 526 43,000  Level Houston Center
02:58PM 31.4378 -92.5981 242° Southwest 472 543 43,000  Level Houston Center
02:59PM 31.3733 -92.7339 241° Southwest 480 552 43,000  Level Houston Center
03:00PM 31.2950 -92.8908 240° Southwest 471 542 43,000  Level Houston Center
03:01PM 31.2314 -93.0233 241° Southwest 469 540 43,000  Level Houston Center
03:02PM 31.1647 -93.1561 240° Southwest 467 537 43,000  Level Houston Center
03:03PM 31.1036 -93.2861 241° Southwest 469 540 43,000 -300 Level Houston Center
03:04PM 31.0397 -93.4164 240° Southwest 467 537 42,400 -780 Descending Houston Center
03:05PM 30.9625 -93.5736 240° Southwest 469 540 41,400 -1,260 Descending Houston Center
03:06PM 30.9000 -93.7033 241° Southwest 464 534 39,800 -2,040 Descending Houston Center
03:07PM 30.8372 -93.8308 240° Southwest 460 529 37,200 -2,640 Descending Houston Center
03:08PM 30.7739 -93.9575 240° Southwest 458 527 34,300 -3,420 Descending Houston Center
03:09PM 30.6950 -94.1172 240° Southwest 478 550 30,100 -3,840 Descending Houston Center
03:10PM 30.6269 -94.2525 240° Southwest 489 563 26,400 -3,720 Descending Houston Center
03:11PM 30.5742 -94.3611 241° Southwest 479 551 23,500 -3,540 Descending Houston Center
03:12PM 30.5125 -94.4833 240° Southwest 422 486 20,100 -3,000 Descending Houston Center
03:13PM 30.4492 -94.5886 235° Southwest 386 444 17,400 -2,880 Descending Houston Center
03:14PM 30.3814 -94.6919 233° Southwest 379 436 14,300 -2,040 Descending Houston Center
03:15PM 30.3231 -94.7842 234° Southwest 338 389 13,300 -960 Descending Houston Center
03:16PM 30.2664 -94.8711 233° Southwest 344 396 12,400 -1,020 Descending Houston Center
03:17PM 30.2058 -94.9633 233° Southwest 340 391 11,300 -1,020 Descending Houston Center
03:18PM 30.1508 -95.0500 234° Southwest 325 374 10,400 -1,380 Descending Houston Center
03:19PM 30.0794 -95.0950 209° Southwest 287 330 8,500 -1,260 Descending Houston Center
03:20PM 30.0128 -95.1225 200° South 280 322 8,000 -300 Descending Houston Center
03:21PM 29.9339 -95.1564 200° South 291 335 8,000 -660 Level Houston Center
03:23PM 29.8511 -95.1931 201° Southwest 282 325 6,700 -960 Descending Houston Center
03:24PM 29.7825 -95.2208 199° South 244 281 6,000 -360 Descending Houston Center
03:25PM 29.7200 -95.2500 202° Southwest 225 259 6,000 -300 Level Houston Center
03:26PM 29.7256 -95.3094 276° West 223 257 5,500 -900 Descending Houston Center
03:27PM 29.7797 -95.3511 326° Northwest 245 282 4,200 -960 Descending Houston Center
03:28PM 29.7844 -95.4033 276° West 188 216 3,600 -600 Descending Houston Center
03:29PM 29.7322 -95.3833 162° South 186 214 3,000 -720 Descending Houston Center
03:30PM 29.6992 -95.3439 134° Southeast 158 182 2,100 -1,080 Descending Houston Center
03:31PM 29.6711 -95.3111 135° Southeast 137 158 900 -780 Descending Houston Center
03:32PM 29.6378 -95.2706 133° Southeast 143 165 200 -480 Descending Houston Center